createdAt,value
2018-11-01T00:02:13.822Z,14.07
2018-11-01T00:04:41.114Z,12.95
2018-11-01T00:07:08.394Z,11.55
2018-11-01T00:09:35.670Z,12.50
2018-11-01T00:12:02.954Z,11.65
2018-11-01T00:14:30.239Z,11.53
2018-11-01T00:16:57.617Z,11.03
2018-11-01T00:19:24.905Z,12.55
2018-11-01T00:21:52.184Z,12.30
2018-11-01T00:24:19.512Z,13.15
2018-11-01T00:26:46.844Z,12.53
2018-11-01T00:29:14.114Z,12.18
2018-11-01T00:31:41.399Z,12.82
2018-11-01T00:34:08.693Z,14.30
2018-11-01T00:36:35.987Z,16.25
2018-11-01T00:39:03.497Z,13.95
2018-11-01T00:41:30.873Z,13.72
2018-11-01T00:43:58.158Z,13.35
2018-11-01T00:46:25.436Z,12.70
2018-11-01T00:48:52.742Z,12.55
2018-11-01T00:51:20.013Z,11.63
2018-11-01T00:53:47.299Z,12.95
2018-11-01T00:56:14.593Z,11.93
2018-11-01T00:58:41.874Z,12.75
2018-11-01T01:01:09.738Z,11.65
2018-11-01T01:03:37.043Z,15.60
2018-11-01T01:06:04.355Z,12.00
2018-11-01T01:08:31.632Z,11.95
2018-11-01T01:10:58.931Z,12.20
2018-11-01T01:13:26.210Z,11.25
2018-11-01T01:15:53.493Z,13.62
2018-11-01T01:18:20.787Z,13.38
2018-11-01T01:20:48.074Z,13.65
2018-11-01T01:23:15.353Z,12.53
2018-11-01T01:25:42.645Z,14.05
2018-11-01T01:28:09.932Z,12.47
2018-11-01T01:30:37.240Z,11.80
2018-11-01T01:33:04.522Z,13.40
2018-11-01T01:35:31.815Z,12.95
2018-11-01T01:37:59.114Z,15.98
2018-11-01T01:40:26.403Z,14.90
2018-11-01T01:42:54.531Z,14.60
2018-11-01T01:45:22.448Z,14.25
2018-11-01T01:47:49.734Z,14.87
2018-11-01T01:50:17.792Z,13.98
2018-11-01T01:52:45.628Z,16.30
2018-11-01T01:55:12.935Z,14.38
2018-11-01T01:57:40.281Z,14.00
2018-11-01T02:00:10.248Z,16.57
2018-11-01T02:02:38.111Z,13.88
2018-11-01T02:05:05.962Z,13.28
2018-11-01T02:07:33.239Z,14.47
2018-11-01T02:10:00.538Z,14.73
2018-11-01T02:12:27.822Z,14.38
2018-11-01T02:14:55.119Z,14.18
2018-11-01T02:17:22.403Z,14.53
2018-11-01T02:19:49.770Z,14.35
2018-11-01T02:22:17.053Z,15.80
2018-11-01T02:24:44.355Z,15.50
2018-11-01T02:27:11.671Z,14.10
2018-11-01T02:29:38.965Z,15.13
2018-11-01T02:32:06.240Z,15.23
2018-11-01T02:34:33.523Z,13.45
2018-11-01T02:37:00.819Z,13.93
2018-11-01T02:39:28.111Z,13.62
2018-11-01T02:41:55.423Z,13.72
2018-11-01T02:44:22.716Z,13.93
2018-11-01T02:46:50.007Z,14.65
2018-11-01T02:49:17.310Z,13.65
2018-11-01T02:51:44.635Z,15.80
2018-11-01T02:54:11.914Z,14.90
2018-11-01T02:56:39.198Z,14.50
2018-11-01T02:59:06.495Z,13.58
2018-11-01T03:01:33.862Z,13.58
2018-11-01T03:04:01.157Z,13.80
2018-11-01T03:06:28.469Z,13.80
2018-11-01T03:08:55.751Z,13.70
2018-11-01T03:11:23.030Z,14.63
2018-11-01T03:13:50.330Z,14.40
2018-11-01T03:16:17.700Z,13.10
2018-11-01T03:18:45.005Z,13.70
2018-11-01T03:21:12.327Z,13.95
2018-11-01T03:23:39.615Z,14.73
2018-11-01T03:26:06.910Z,15.40
2018-11-01T03:28:34.205Z,14.33
2018-11-01T03:31:01.671Z,13.75
2018-11-01T03:33:28.959Z,15.63
2018-11-01T03:35:56.275Z,14.43
2018-11-01T03:38:23.716Z,15.40
2018-11-01T03:40:50.891Z,14.65
2018-11-01T03:43:18.193Z,14.30
2018-11-01T03:45:45.523Z,15.25
2018-11-01T03:48:12.923Z,15.25
2018-11-01T03:50:40.216Z,14.90
2018-11-01T03:53:07.490Z,15.55
2018-11-01T03:55:34.802Z,14.78
2018-11-01T03:58:02.077Z,16.10
2018-11-01T04:00:29.367Z,14.68
2018-11-01T04:02:56.696Z,16.23
2018-11-01T04:05:23.984Z,15.18
2018-11-01T04:07:51.279Z,15.15
2018-11-01T04:10:18.588Z,16.48
2018-11-01T04:12:45.912Z,16.65
2018-11-01T04:15:14.266Z,15.85
2018-11-01T04:17:41.486Z,14.93
2018-11-01T04:20:10.049Z,15.25
2018-11-01T04:22:37.295Z,15.35
2018-11-01T04:25:04.656Z,16.50
2018-11-01T04:27:31.835Z,15.40
2018-11-01T04:29:59.027Z,15.45
2018-11-01T04:32:26.254Z,14.40
2018-11-01T04:34:53.440Z,15.65
2018-11-01T04:37:20.611Z,15.58
2018-11-01T04:39:47.782Z,16.73
2018-11-01T04:42:14.987Z,15.88
2018-11-01T04:44:42.217Z,14.35
2018-11-01T04:47:09.401Z,14.40
2018-11-01T04:49:36.615Z,15.15
2018-11-01T04:52:03.814Z,14.33
2018-11-01T04:54:31.003Z,14.47
2018-11-01T04:56:58.183Z,14.73
2018-11-01T04:59:25.372Z,15.00
2018-11-01T05:01:52.553Z,14.93
2018-11-01T05:04:19.744Z,14.93
2018-11-01T05:06:46.923Z,15.53
2018-11-01T05:09:14.099Z,16.35
2018-11-01T05:11:41.286Z,15.43
2018-11-01T05:14:08.503Z,15.10
2018-11-01T05:16:35.680Z,16.15
2018-11-01T05:19:02.875Z,15.00
2018-11-01T05:21:30.069Z,14.07
2018-11-01T05:23:57.271Z,15.05
2018-11-01T05:26:24.460Z,15.55
2018-11-01T05:28:51.664Z,14.78
2018-11-01T05:31:18.852Z,15.03
2018-11-01T05:33:46.035Z,15.15
2018-11-01T05:36:13.214Z,17.02
2018-11-01T05:38:40.391Z,15.03
2018-11-01T05:41:07.571Z,14.95
2018-11-01T05:43:34.734Z,14.80
2018-11-01T05:46:01.916Z,14.47
2018-11-01T05:48:29.987Z,15.20
2018-11-01T05:50:57.176Z,14.98
2018-11-01T05:53:24.350Z,14.28
2018-11-01T05:55:51.536Z,15.40
2018-11-01T05:58:18.715Z,14.43
2018-11-01T06:00:45.902Z,15.55
2018-11-01T06:03:13.079Z,14.80
2018-11-01T06:05:40.517Z,18.70
2018-11-01T06:08:10.332Z,18.70
2018-11-01T06:10:37.536Z,15.48
2018-11-01T06:13:04.728Z,14.05
2018-11-01T06:15:31.947Z,14.78
2018-11-01T06:17:59.176Z,14.13
2018-11-01T06:20:26.395Z,14.45
2018-11-01T06:22:53.575Z,15.75
2018-11-01T06:25:20.767Z,12.82
2018-11-01T06:27:47.952Z,15.10
2018-11-01T06:30:16.140Z,37.67
2018-11-01T06:32:44.067Z,16.30
2018-11-01T06:35:43.946Z,14.47
2018-11-01T06:38:11.124Z,15.23
2018-11-01T06:40:38.320Z,16.37
2018-11-01T06:43:05.510Z,14.70
2018-11-01T06:45:32.701Z,14.38
2018-11-01T06:47:59.995Z,15.53
2018-11-01T06:50:27.175Z,15.58
2018-11-01T06:52:54.346Z,13.95
2018-11-01T06:55:21.539Z,13.10
2018-11-01T06:57:48.728Z,14.07
2018-11-01T07:00:16.110Z,14.25
2018-11-01T07:02:43.352Z,12.60
2018-11-01T07:05:10.557Z,13.48
2018-11-01T07:07:38.270Z,14.85
2018-11-01T07:10:06.439Z,15.03
2018-11-01T07:12:33.631Z,13.95
2018-11-01T07:15:00.804Z,17.48
2018-11-01T07:17:28.209Z,15.38
2018-11-01T07:19:55.174Z,15.68
2018-11-01T07:22:22.378Z,13.15
2018-11-01T07:24:49.560Z,12.47
2018-11-01T07:27:16.736Z,10.82
2018-11-01T07:29:43.916Z,10.28
2018-11-01T07:32:11.090Z,15.88
2018-11-01T07:34:38.358Z,10.13
2018-11-01T07:37:05.542Z,11.30
2018-11-01T07:39:32.710Z,11.97
2018-11-01T07:41:59.893Z,10.65
2018-11-01T07:44:27.065Z,11.15
2018-11-01T07:46:54.267Z,14.30
2018-11-01T07:49:21.471Z,11.50
2018-11-01T07:51:48.648Z,12.47
2018-11-01T07:54:15.835Z,11.68
2018-11-01T07:56:43.035Z,11.93
2018-11-01T07:59:10.583Z,12.45
2018-11-01T08:01:37.868Z,10.43
2018-11-01T08:04:05.075Z,11.48
2018-11-01T08:06:32.418Z,11.22
2018-11-01T08:08:59.899Z,10.13
2018-11-01T08:11:27.120Z,10.65
2018-11-01T08:13:54.258Z,9.00
2018-11-01T08:16:21.431Z,10.63
2018-11-01T08:18:48.582Z,10.58
2018-11-01T08:21:16.016Z,10.28
2018-11-01T08:23:43.078Z,8.98
2018-11-01T08:26:10.430Z,11.75
2018-11-01T08:28:37.634Z,13.38
2018-11-01T08:31:04.824Z,14.65
2018-11-01T08:33:31.998Z,12.98
2018-11-01T08:35:59.211Z,12.90
2018-11-01T08:38:26.382Z,11.90
2018-11-01T08:40:53.630Z,10.25
2018-11-01T08:43:20.787Z,15.75
2018-11-01T08:45:47.966Z,11.15
2018-11-01T08:48:15.172Z,15.05
2018-11-01T08:50:42.355Z,12.37
2018-11-01T08:53:09.523Z,10.18
2018-11-01T08:55:36.803Z,10.58
2018-11-01T08:58:03.980Z,14.87
2018-11-01T09:00:31.173Z,10.68
2018-11-01T09:02:58.358Z,11.25
2018-11-01T09:05:25.540Z,11.88
2018-11-01T09:07:52.796Z,10.40
2018-11-01T09:10:19.958Z,12.03
2018-11-01T09:12:47.155Z,11.03
2018-11-01T09:15:15.700Z,11.15
2018-11-01T09:17:42.882Z,10.55
2018-11-01T09:20:10.803Z,10.15
2018-11-01T09:22:38.128Z,11.88
2018-11-01T09:25:05.598Z,13.53
2018-11-01T09:27:32.791Z,13.03
2018-11-01T09:30:00.076Z,10.58
2018-11-01T09:32:27.272Z,12.70
2018-11-01T09:34:54.482Z,10.03
2018-11-01T09:37:21.691Z,12.33
2018-11-01T09:39:48.880Z,11.48
2018-11-01T09:42:16.059Z,9.78
2018-11-01T09:44:43.259Z,11.28
2018-11-01T09:47:10.962Z,11.90
2018-11-01T09:49:37.927Z,11.70
2018-11-01T09:52:05.140Z,10.13
2018-11-01T09:54:32.313Z,10.68
2018-11-01T09:56:59.531Z,9.90
2018-11-01T09:59:26.699Z,10.10
2018-11-01T10:01:53.894Z,9.93
2018-11-01T10:04:21.087Z,10.60
2018-11-01T10:06:48.280Z,10.03
2018-11-01T10:09:15.467Z,11.35
2018-11-01T10:11:42.678Z,11.88
2018-11-01T10:14:10.354Z,19.90
2018-11-01T10:16:38.215Z,11.90
2018-11-01T10:19:05.813Z,11.70
2018-11-01T10:21:33.047Z,12.68
2018-11-01T10:24:00.215Z,11.12
2018-11-01T10:26:27.405Z,10.35
2018-11-01T10:28:54.603Z,12.05
2018-11-01T10:31:21.783Z,11.03
2018-11-01T10:33:49.087Z,9.85
2018-11-01T10:36:16.242Z,13.25
2018-11-01T10:38:43.426Z,11.48
2018-11-01T10:41:10.704Z,11.08
2018-11-01T10:43:37.882Z,10.98
2018-11-01T10:46:05.097Z,14.00
2018-11-01T10:48:32.403Z,10.08
2018-11-01T10:50:59.631Z,11.25
2018-11-01T10:53:26.851Z,11.63
2018-11-01T10:55:54.047Z,10.45
2018-11-01T10:58:21.244Z,13.15
2018-11-01T11:00:53.980Z,10.53
2018-11-01T11:03:21.047Z,11.30
2018-11-01T11:05:48.239Z,11.12
2018-11-01T11:08:15.411Z,8.30
2018-11-01T11:10:42.604Z,8.08
2018-11-01T11:13:09.802Z,9.45
2018-11-01T11:15:36.993Z,8.95
2018-11-01T11:18:04.177Z,8.88
2018-11-01T11:20:31.704Z,12.05
2018-11-01T11:22:58.580Z,9.08
2018-11-01T11:25:25.754Z,8.40
2018-11-01T11:27:52.955Z,8.40
2018-11-01T11:30:20.477Z,8.35
2018-11-01T11:32:47.315Z,9.00
2018-11-01T11:35:14.503Z,8.73
2018-11-01T11:37:41.676Z,8.05
2018-11-01T11:40:09.601Z,9.55
2018-11-01T11:42:36.800Z,7.87
2018-11-01T11:45:04.220Z,7.45
2018-11-01T11:47:31.394Z,8.45
2018-11-01T11:49:58.562Z,7.05
2018-11-01T11:52:25.742Z,7.92
2018-11-01T11:54:52.917Z,8.18
2018-11-01T11:57:20.101Z,9.85
2018-11-01T11:59:47.275Z,8.30
2018-11-01T12:02:14.498Z,10.75
2018-11-01T12:04:41.646Z,10.40
2018-11-01T12:07:08.824Z,8.83
2018-11-01T12:09:36.004Z,11.57
2018-11-01T12:12:03.180Z,9.25
2018-11-01T12:14:30.370Z,14.50
2018-11-01T12:16:57.555Z,8.90
2018-11-01T12:19:24.713Z,9.58
2018-11-01T12:21:51.911Z,8.73
2018-11-01T12:24:19.081Z,13.15
2018-11-01T12:26:46.272Z,10.25
2018-11-01T12:29:13.474Z,11.30
2018-11-01T12:31:40.656Z,10.38
2018-11-01T12:34:07.836Z,11.55
2018-11-01T12:36:35.020Z,8.95
2018-11-01T12:39:02.268Z,9.88
2018-11-01T12:41:29.440Z,7.05
2018-11-01T12:43:56.632Z,8.18
2018-11-01T12:46:23.806Z,7.60
2018-11-01T12:48:51.002Z,11.00
2018-11-01T12:51:18.192Z,7.67
2018-11-01T12:53:51.888Z,8.28
2018-11-01T12:56:19.124Z,6.50
2018-11-01T12:58:46.267Z,5.05
2018-11-01T13:01:13.439Z,5.00
2018-11-01T13:03:40.795Z,7.10
2018-11-01T13:06:07.966Z,6.37
2018-11-01T13:08:35.184Z,5.75
2018-11-01T13:11:02.499Z,5.90
2018-11-01T13:13:29.812Z,7.17
2018-11-01T13:15:56.983Z,4.22
2018-11-01T13:18:24.179Z,3.40
2018-11-01T13:20:51.357Z,3.77
2018-11-01T13:23:18.539Z,4.37
2018-11-01T13:25:45.768Z,4.15
2018-11-01T13:28:12.939Z,4.10
2018-11-01T13:30:40.115Z,2.58
2018-11-01T13:33:07.308Z,3.98
2018-11-01T13:35:34.631Z,7.30
2018-11-01T13:38:01.697Z,6.20
2018-11-01T13:40:29.193Z,4.35
2018-11-01T13:42:56.074Z,4.03
2018-11-01T13:45:23.289Z,7.28
2018-11-01T13:47:50.525Z,3.92
2018-11-01T13:50:17.696Z,3.70
2018-11-01T13:52:44.872Z,5.08
2018-11-01T13:55:12.778Z,4.70
2018-11-01T13:57:39.982Z,4.60
2018-11-01T14:00:07.698Z,5.85
2018-11-01T14:02:38.947Z,7.78
2018-11-01T14:05:06.678Z,7.20
2018-11-01T14:07:33.858Z,9.40
2018-11-01T14:10:01.395Z,4.20
2018-11-01T14:12:28.718Z,13.08
2018-11-01T14:14:56.207Z,3.50
2018-11-01T14:17:24.283Z,3.60
2018-11-01T14:19:51.728Z,6.05
2018-11-01T14:22:19.083Z,5.50
2018-11-01T14:24:46.330Z,4.10
2018-11-01T14:27:13.797Z,18.45
2018-11-01T14:29:41.164Z,5.47
2018-11-01T14:32:08.548Z,5.92
2018-11-01T14:34:37.849Z,5.70
2018-11-01T14:37:05.110Z,5.42
2018-11-01T14:39:32.768Z,7.40
2018-11-01T14:42:00.055Z,4.70
2018-11-01T14:44:28.343Z,4.50
2018-11-01T14:46:57.034Z,39.03
2018-11-01T14:49:24.235Z,8.73
2018-11-01T14:51:51.676Z,11.75
2018-11-01T14:54:19.956Z,5.03
2018-11-01T14:56:47.773Z,3.52
2018-11-01T14:59:14.838Z,4.47
2018-11-01T15:01:41.036Z,9.78
2018-11-01T15:04:08.212Z,4.20
2018-11-01T15:06:35.499Z,3.52
2018-11-01T15:09:04.004Z,6.25
2018-11-01T15:11:31.177Z,4.37
2018-11-01T15:13:58.360Z,4.05
2018-11-01T15:16:25.549Z,7.25
2018-11-01T15:18:52.742Z,6.08
2018-11-01T15:21:19.924Z,5.78
2018-11-01T15:23:47.190Z,7.08
2018-11-01T15:26:14.480Z,6.62
2018-11-01T15:28:41.569Z,4.78
2018-11-01T15:31:10.289Z,5.80
2018-11-01T15:33:37.517Z,5.30
2018-11-01T15:36:04.679Z,5.20
2018-11-01T15:38:31.874Z,6.28
2018-11-01T15:41:01.019Z,7.30
2018-11-01T15:43:28.556Z,6.75
2018-11-01T15:45:55.777Z,9.10
2018-11-01T15:48:23.072Z,7.20
2018-11-01T15:50:50.205Z,9.05
2018-11-01T15:53:17.415Z,8.85
2018-11-01T15:55:44.621Z,8.90
2018-11-01T15:58:11.811Z,7.70
2018-11-01T16:00:39.040Z,9.60
2018-11-01T16:03:06.235Z,8.35
2018-11-01T16:05:33.460Z,8.95
2018-11-01T16:08:00.645Z,9.23
2018-11-01T16:10:27.836Z,8.45
2018-11-01T16:12:55.036Z,8.83
2018-11-01T16:15:22.218Z,8.53
2018-11-01T16:17:49.428Z,9.53
2018-11-01T16:20:16.707Z,9.20
2018-11-01T16:22:43.828Z,9.48
2018-11-01T16:25:11.039Z,11.38
2018-11-01T16:27:38.239Z,10.32
2018-11-01T16:30:05.946Z,8.93
2018-11-01T16:32:33.136Z,9.33
2018-11-01T16:35:00.321Z,8.00
2018-11-01T16:37:27.531Z,12.85
2018-11-01T16:39:54.769Z,11.90
2018-11-01T16:42:22.077Z,10.65
2018-11-01T16:44:49.166Z,9.80
2018-11-01T16:47:16.356Z,11.80
2018-11-01T16:49:43.551Z,13.22
2018-11-01T16:52:10.754Z,18.42
2018-11-01T16:54:37.963Z,23.05
2018-11-01T16:57:05.337Z,14.98
2018-11-01T16:59:33.081Z,14.15
2018-11-01T17:02:00.282Z,12.40
2018-11-01T17:04:27.526Z,13.15
2018-11-01T17:06:54.680Z,23.20
2018-11-01T17:09:22.508Z,26.00
2018-11-01T17:11:49.749Z,23.52
2018-11-01T17:14:16.955Z,29.37
2018-11-01T17:16:44.159Z,16.23
2018-11-01T17:19:11.501Z,14.98
2018-11-01T17:21:38.863Z,22.52
2018-11-01T17:24:06.074Z,15.13
2018-11-01T17:26:33.271Z,20.57
2018-11-01T17:29:00.462Z,15.08
2018-11-01T17:31:27.634Z,16.95
2018-11-01T17:33:54.880Z,16.67
2018-11-01T17:36:22.075Z,13.98
2018-11-01T17:38:49.288Z,18.42
2018-11-01T17:41:16.474Z,14.60
2018-11-01T17:43:43.668Z,16.95
2018-11-01T17:46:10.927Z,16.17
2018-11-01T17:48:38.243Z,15.98
2018-11-01T17:51:11.895Z,19.82
2018-11-01T17:53:39.126Z,18.00
2018-11-01T17:56:06.374Z,46.30
2018-11-01T17:58:33.835Z,97.60
2018-11-01T18:01:01.084Z,120.60
2018-11-01T18:03:28.456Z,120.42
2018-11-01T18:05:55.645Z,78.57
2018-11-01T18:08:23.054Z,57.48
2018-11-01T18:10:50.220Z,38.23
2018-11-01T18:13:17.378Z,21.95
2018-11-01T18:15:44.570Z,16.87
2018-11-01T18:18:11.763Z,16.37
2018-11-01T18:20:38.947Z,11.97
2018-11-01T18:23:06.204Z,11.57
2018-11-01T18:25:37.656Z,15.65
2018-11-01T18:28:05.251Z,13.28
2018-11-01T18:30:32.442Z,26.37
2018-11-01T18:32:59.675Z,14.35
2018-11-01T18:35:26.811Z,10.40
2018-11-01T18:37:54.029Z,18.40
2018-11-01T18:40:21.199Z,16.85
2018-11-01T18:42:48.453Z,13.38
2018-11-01T18:45:15.893Z,16.35
2018-11-01T18:47:43.662Z,23.90
2018-11-01T18:50:12.232Z,55.25
2018-11-01T18:52:39.578Z,65.52
2018-11-01T18:55:07.276Z,68.05
2018-11-01T18:57:34.439Z,49.40
2018-11-01T19:00:01.631Z,44.85
2018-11-01T19:02:28.821Z,38.33
2018-11-01T19:04:56.109Z,21.75
2018-11-01T19:07:23.298Z,16.82
2018-11-01T19:09:50.500Z,23.80
2018-11-01T19:12:17.703Z,20.20
2018-11-01T19:14:44.879Z,17.82
2018-11-01T19:17:12.166Z,20.85
2018-11-01T19:19:39.439Z,19.37
2018-11-01T19:22:06.567Z,23.60
2018-11-01T19:24:33.783Z,20.30
2018-11-01T19:27:01.229Z,26.33
2018-11-01T19:29:28.186Z,50.15
2018-11-01T19:31:55.364Z,25.75
2018-11-01T19:34:22.756Z,25.92
2018-11-01T19:36:49.807Z,18.85
2018-11-01T19:39:17.000Z,16.82
2018-11-01T19:41:44.228Z,18.92
2018-11-01T19:44:11.447Z,16.20
2018-11-01T19:46:38.647Z,24.45
2018-11-01T19:49:05.863Z,17.40
2018-11-01T19:51:33.063Z,16.55
2018-11-01T19:54:00.348Z,17.62
2018-11-01T19:56:27.523Z,16.10
2018-11-01T19:58:54.710Z,17.67
2018-11-01T20:01:21.909Z,17.50
2018-11-01T20:03:49.099Z,17.48
2018-11-01T20:06:16.287Z,19.32
2018-11-01T20:08:43.524Z,17.80
2018-11-01T20:11:10.718Z,19.15
2018-11-01T20:13:37.974Z,18.70
2018-11-01T20:16:05.356Z,19.32
2018-11-01T20:18:32.605Z,19.32
2018-11-01T20:20:59.744Z,21.27
2018-11-01T20:23:27.050Z,19.07
2018-11-01T20:25:54.232Z,18.45
2018-11-01T20:28:21.456Z,19.37
2018-11-01T20:30:48.662Z,18.15
2018-11-01T20:33:15.857Z,18.23
2018-11-01T20:35:43.058Z,20.08
2018-11-01T20:38:10.401Z,21.20
2018-11-01T20:40:37.560Z,19.87
2018-11-01T20:43:04.763Z,19.32
2018-11-01T20:45:31.947Z,20.97
2018-11-01T20:47:59.136Z,19.15
2018-11-01T20:50:26.474Z,19.30
2018-11-01T20:52:53.555Z,18.73
2018-11-01T20:55:20.764Z,18.23
2018-11-01T20:57:48.053Z,18.70
2018-11-01T21:00:15.726Z,19.20
2018-11-01T21:02:42.904Z,18.95
2018-11-01T21:05:10.237Z,18.12
2018-11-01T21:07:37.375Z,19.05
2018-11-01T21:10:05.294Z,20.45
2018-11-01T21:12:32.488Z,19.45
2018-11-01T21:14:59.842Z,18.52
2018-11-01T21:17:27.021Z,21.97
2018-11-01T21:19:54.199Z,18.77
2018-11-01T21:22:21.394Z,17.27
2018-11-01T21:24:48.566Z,18.07
2018-11-01T21:27:15.758Z,17.55
2018-11-01T21:29:42.959Z,17.35
2018-11-01T21:32:10.250Z,24.32
2018-11-01T21:34:37.585Z,18.82
2018-11-01T21:37:04.960Z,15.78
2018-11-01T21:39:32.151Z,15.28
2018-11-01T21:41:59.364Z,15.70
2018-11-01T21:44:26.576Z,17.60
2018-11-01T21:46:53.820Z,16.80
2018-11-01T21:49:21.123Z,18.90
2018-11-01T21:51:48.341Z,17.17
2018-11-01T21:54:15.526Z,17.37
2018-11-01T21:56:42.724Z,16.80
2018-11-01T21:59:10.350Z,21.97
2018-11-01T22:01:37.548Z,19.32
2018-11-01T22:04:04.748Z,17.70
2018-11-01T22:06:31.957Z,19.65
2018-11-01T22:08:59.259Z,17.17
2018-11-01T22:11:26.440Z,18.80
2018-11-01T22:13:53.647Z,18.17
2018-11-01T22:16:20.855Z,20.00
2018-11-01T22:18:48.052Z,18.32
2018-11-01T22:21:15.244Z,33.78
2018-11-01T22:23:42.430Z,19.27
2018-11-01T22:26:09.610Z,18.62
2018-11-01T22:28:36.870Z,18.45
2018-11-01T22:31:04.026Z,19.32
2018-11-01T22:33:31.201Z,20.97
2018-11-01T22:35:58.403Z,20.95
2018-11-01T22:38:25.618Z,20.10
2018-11-01T22:40:52.869Z,18.92
2018-11-01T22:43:20.068Z,19.32
2018-11-01T22:45:47.273Z,20.48
2018-11-01T22:48:14.457Z,21.42
2018-11-01T22:50:41.629Z,20.68
2018-11-01T22:53:08.830Z,20.62
2018-11-01T22:55:36.002Z,21.12
2018-11-01T22:58:03.186Z,18.27
2018-11-01T23:00:30.370Z,21.33
2018-11-01T23:02:57.587Z,20.32
2018-11-01T23:05:24.785Z,19.05
2018-11-01T23:07:52.031Z,18.45
2018-11-01T23:10:19.254Z,18.10
2018-11-01T23:12:46.445Z,19.37
2018-11-01T23:15:13.987Z,18.02
2018-11-01T23:17:41.804Z,19.98
2018-11-01T23:20:09.474Z,20.72
2018-11-01T23:22:36.664Z,18.60
2018-11-01T23:25:03.862Z,23.35
2018-11-01T23:27:31.326Z,22.40
2018-11-01T23:29:58.513Z,21.48
2018-11-01T23:32:25.723Z,21.20
2018-11-01T23:34:52.921Z,22.32
2018-11-01T23:37:25.635Z,28.05
2018-11-01T23:39:58.316Z,22.02
2018-11-01T23:42:30.923Z,20.77
2018-11-01T23:45:03.600Z,21.17
2018-11-01T23:47:36.374Z,21.87
2018-11-01T23:50:09.011Z,18.57
2018-11-01T23:52:36.432Z,23.60
2018-11-01T23:55:03.624Z,22.75
2018-11-01T23:57:30.844Z,23.90
2018-11-01T23:59:58.099Z,24.35
